Time;durP1;ratioP1;P1;durP2;ratioP2;P2;SDS_P1;SDS_P2;PMS_P1;PMS_P2;Temp;Humidity;BMP_temperature;BMP_pressure;BME280_temperature;BME280_humidity;BME280_pressure;Samples;Min_cycle;Max_cycle;Signal;HPM_P1;HPM_P2
2023/02/24 00:02:52;;;;;;;17.35;3.72;;;3.80;99.90;;;;;;5053043;28;20471;-64
2023/02/24 00:05:18;;;;;;;12.88;3.25;;;3.80;99.90;;;;;;5037195;28;20127;-62
2023/02/24 00:07:43;;;;;;;11.27;3.10;;;3.70;99.90;;;;;;5050254;28;20086;-64
2023/02/24 00:10:10;;;;;;;17.02;3.60;;;3.70;99.90;;;;;;5056791;28;20047;-64
2023/02/24 00:12:36;;;;;;;13.57;3.08;;;3.70;99.90;;;;;;5062120;28;20219;-64
2023/02/24 00:15:01;;;;;;;12.48;2.85;;;3.70;99.90;;;;;;5067129;28;20041;-64
2023/02/24 00:17:29;;;;;;;14.93;3.05;;;3.60;99.90;;;;;;5064931;28;20390;-64
2023/02/24 00:19:56;;;;;;;13.75;3.17;;;3.60;99.90;;;;;;5034123;28;20368;-64
2023/02/24 00:22:21;;;;;;;9.70;2.50;;;3.50;99.90;;;;;;5058495;28;20127;-64
2023/02/24 00:24:47;;;;;;;7.85;2.70;;;3.50;99.90;;;;;;5047493;28;20075;-62
2023/02/24 00:27:13;;;;;;;12.57;2.95;;;3.50;99.90;;;;;;5061879;28;20676;-63
2023/02/24 00:29:40;;;;;;;9.00;2.70;;;3.50;99.90;;;;;;5036492;28;20070;-63
2023/02/24 00:32:11;;;;;;;10.70;2.90;;;3.50;99.90;;;;;;5039912;28;20052;-64
2023/02/24 00:34:37;;;;;;;12.85;2.78;;;3.50;99.90;;;;;;5054432;28;20430;-64
2023/02/24 00:37:07;;;;;;;8.82;2.40;;;3.50;99.90;;;;;;5054011;28;20029;-64
2023/02/24 00:39:34;;;;;;;9.48;2.10;;;3.50;99.90;;;;;;5057333;28;20032;-63
2023/02/24 00:42:05;;;;;;;8.13;2.40;;;3.50;99.90;;;;;;5070768;28;20112;-63
2023/02/24 00:44:36;;;;;;;11.40;2.03;;;3.50;99.90;;;;;;5058150;28;20037;-62
2023/02/24 00:47:04;;;;;;;6.40;2.03;;;3.50;99.90;;;;;;5067892;28;20028;-64
2023/02/24 00:49:30;;;;;;;8.95;2.10;;;3.50;99.90;;;;;;5071114;28;20488;-62
2023/02/24 00:51:57;;;;;;;8.38;2.10;;;3.50;99.90;;;;;;5059191;28;20112;-64
2023/02/24 00:54:26;;;;;;;7.25;2.00;;;3.50;99.90;;;;;;5060563;28;20086;-64
2023/02/24 00:56:53;;;;;;;10.90;1.90;;;3.50;99.90;;;;;;5051559;28;20076;-64
2023/02/24 00:59:21;;;;;;;11.45;2.50;;;3.50;99.90;;;;;;5040982;28;20036;-64
2023/02/24 01:01:49;;;;;;;6.80;2.10;;;3.50;99.90;;;;;;5028151;28;20036;-64
2023/02/24 01:04:15;;;;;;;6.60;1.73;;;3.50;99.90;;;;;;5068723;28;20036;-64
2023/02/24 01:06:44;;;;;;;7.00;1.98;;;3.40;99.90;;;;;;5064191;28;20466;-64
2023/02/24 01:09:17;;;;;;;6.60;1.90;;;3.40;99.90;;;;;;5061852;28;20040;-64
2023/02/24 01:14:31;;;;;;;11.25;2.00;;;3.40;99.90;;;;;;5057327;28;20387;-64
2023/02/24 01:16:57;;;;;;;11.98;2.25;;;3.40;99.90;;;;;;5062356;28;20479;-64
2023/02/24 01:19:29;;;;;;;8.95;2.05;;;3.40;99.90;;;;;;5056343;28;20039;-64
2023/02/24 01:21:56;;;;;;;7.50;1.90;;;3.40;99.90;;;;;;5058344;28;20501;-63
2023/02/24 01:24:26;;;;;;;10.57;2.08;;;3.40;99.90;;;;;;5064660;28;20048;-64
2023/02/24 01:26:52;;;;;;;8.75;2.25;;;3.40;99.90;;;;;;5057402;28;20029;-64
2023/02/24 01:29:21;;;;;;;10.27;1.98;;;3.40;99.90;;;;;;5032731;28;20446;-64
2023/02/24 01:31:49;;;;;;;8.48;1.83;;;3.40;99.90;;;;;;5056616;28;20032;-64
2023/02/24 01:34:18;;;;;;;8.45;2.17;;;3.40;99.90;;;;;;5059775;28;20033;-63
2023/02/24 01:36:44;;;;;;;7.25;1.95;;;3.40;99.90;;;;;;5067705;28;20094;-64
2023/02/24 01:39:12;;;;;;;8.32;1.95;;;3.40;99.90;;;;;;5062846;28;20043;-64
2023/02/24 01:41:41;;;;;;;7.88;1.50;;;3.50;99.90;;;;;;5061522;28;20508;-64
2023/02/24 01:44:31;;;;;;;8.90;2.13;;;3.50;99.90;;;;;;5060651;28;20032;-62
2023/02/24 01:47:00;;;;;;;5.00;1.73;;;3.50;99.90;;;;;;5059006;28;20041;-63
2023/02/24 01:49:28;;;;;;;10.43;1.90;;;3.50;99.90;;;;;;5059316;28;20094;-63
2023/02/24 01:52:08;;;;;;;7.75;1.90;;;3.50;99.90;;;;;;5037366;28;20087;-63
2023/02/24 01:54:45;;;;;;;6.15;1.95;;;3.40;99.90;;;;;;5033479;28;20037;-63
2023/02/24 01:57:15;;;;;;;7.18;1.70;;;3.40;99.90;;;;;;5061178;28;20037;-63
2023/02/24 01:59:43;;;;;;;8.98;1.73;;;3.40;99.90;;;;;;5045141;28;20036;-63
2023/02/24 02:02:09;;;;;;;6.53;1.70;;;3.40;99.90;;;;;;5060451;28;20453;-63
2023/02/24 02:05:03;;;;;;;6.70;1.90;;;3.40;99.90;;;;;;5064599;28;20120;-63
2023/02/24 02:07:29;;;;;;;7.90;1.83;;;3.40;99.90;;;;;;5052343;28;20360;-62
2023/02/24 02:09:59;;;;;;;9.00;2.28;;;3.40;99.90;;;;;;5060704;28;20043;-63
2023/02/24 02:12:26;;;;;;;13.75;2.50;;;3.40;99.90;;;;;;5060118;28;20371;-63
2023/02/24 02:14:55;;;;;;;12.23;1.88;;;3.40;99.90;;;;;;5056197;28;20087;-63
2023/02/24 02:17:39;;;;;;;7.47;1.60;;;3.40;99.90;;;;;;5064296;28;20482;-63
2023/02/24 02:20:18;;;;;;;8.00;1.90;;;3.40;99.90;;;;;;5063307;28;20036;-63
2023/02/24 02:23:06;;;;;;;8.85;1.45;;;3.40;99.90;;;;;;5061141;28;20119;-63
2023/02/24 02:26:25;;;;;;;8.15;1.92;;;3.30;99.90;;;;;;5044001;28;20041;-63
2023/02/24 02:29:21;;;;;;;10.68;2.00;;;3.40;99.90;;;;;;4961701;28;20102;-63
2023/02/24 02:32:24;;;;;;;10.05;1.80;;;3.30;99.90;;;;;;5056798;28;20040;-63
2023/02/24 02:34:56;;;;;;;9.00;1.67;;;3.30;99.90;;;;;;5053903;28;20361;-62
2023/02/24 02:37:33;;;;;;;9.38;1.90;;;3.30;99.90;;;;;;5040040;28;20037;-63
2023/02/24 02:40:14;;;;;;;6.60;1.67;;;3.30;99.90;;;;;;5061737;22;20041;-63
2023/02/24 02:43:06;;;;;;;7.43;1.83;;;3.30;99.90;;;;;;5044120;28;20155;-63
2023/02/24 02:45:46;;;;;;;6.30;1.63;;;3.30;99.90;;;;;;5043806;28;20048;-63
2023/02/24 02:48:32;;;;;;;8.05;1.50;;;3.30;99.90;;;;;;5046341;28;20045;-62
2023/02/24 02:51:05;;;;;;;11.10;1.60;;;3.30;99.90;;;;;;5028964;28;20530;-62
2023/02/24 02:53:58;;;;;;;3.90;1.42;;;3.30;99.90;;;;;;5049529;28;20056;-64
2023/02/24 02:56:36;;;;;;;10.55;2.00;;;3.30;99.90;;;;;;5041668;28;20140;-63
2023/02/24 02:59:04;;;;;;;8.70;1.75;;;3.20;99.90;;;;;;5055260;28;20041;-63
2023/02/24 03:01:35;;;;;;;6.05;1.58;;;3.20;99.90;;;;;;5048650;28;20060;-63
2023/02/24 03:04:05;;;;;;;8.35;1.95;;;3.20;99.90;;;;;;5031592;28;20120;-64
2023/02/24 03:06:47;;;;;;;6.00;1.50;;;3.20;99.90;;;;;;5036741;28;20112;-63
2023/02/24 03:09:22;;;;;;;11.38;1.73;;;3.20;99.90;;;;;;5049393;28;20041;-62
2023/02/24 03:11:54;;;;;;;8.88;1.90;;;3.20;99.90;;;;;;5048579;28;20117;-62
2023/02/24 03:14:28;;;;;;;8.43;2.28;;;3.20;99.90;;;;;;5028051;28;20037;-63
2023/02/24 03:16:57;;;;;;;6.80;1.60;;;3.20;99.90;;;;;;5045454;28;20041;-62
2023/02/24 03:19:29;;;;;;;6.10;1.65;;;3.10;99.90;;;;;;5049860;28;20032;-62
2023/02/24 03:22:04;;;;;;;;;;;3.10;99.90;;;;;;5044791;28;20104;-62
2023/02/24 03:24:30;;;;;;;5.88;1.60;;;3.10;99.90;;;;;;5028962;28;19971;-62
2023/02/24 03:27:34;;;;;;;9.35;1.90;;;3.10;99.90;;;;;;5048790;28;20061;-62
2023/02/24 03:30:14;;;;;;;8.38;1.65;;;3.10;99.90;;;;;;5002541;28;20128;-63
2023/02/24 03:32:54;;;;;;;9.90;1.80;;;3.20;99.90;;;;;;5030407;28;20048;-63
2023/02/24 03:35:24;;;;;;;6.75;1.60;;;3.20;99.90;;;;;;5048960;28;20040;-62
2023/02/24 03:37:52;;;;;;;5.43;1.45;;;3.20;99.90;;;;;;5048759;28;20103;-63
2023/02/24 03:40:19;;;;;;;5.70;1.88;;;3.20;99.90;;;;;;5027695;28;20068;-63
2023/02/24 03:42:56;;;;;;;8.68;2.15;;;3.20;99.90;;;;;;5029834;28;20386;-63
2023/02/24 03:45:22;;;;;;;9.13;1.80;;;3.20;99.90;;;;;;5020347;28;20487;-62
2023/02/24 03:47:49;;;;;;;10.00;2.17;;;3.20;99.90;;;;;;5027385;28;20041;-62
2023/02/24 03:50:19;;;;;;;7.53;1.98;;;3.30;99.90;;;;;;5028728;28;20044;-62
2023/02/24 03:53:14;;;;;;;6.53;1.80;;;3.30;99.90;;;;;;5027199;28;20029;-63
2023/02/24 03:56:05;;;;;;;8.30;1.88;;;3.30;99.90;;;;;;5048976;28;20487;-63
2023/02/24 03:58:31;;;;;;;9.52;1.55;;;3.30;99.90;;;;;;5002707;28;20053;-63
2023/02/24 04:01:33;;;;;;;7.03;1.40;;;3.30;99.90;;;;;;5051857;28;20039;-62
2023/02/24 04:04:06;;;;;;;7.40;1.90;;;3.30;99.90;;;;;;5047505;28;20048;-62
2023/02/24 04:06:52;;;;;;;9.13;1.52;;;3.30;99.90;;;;;;5034404;28;20048;-63
2023/02/24 04:09:40;;;;;;;5.55;1.40;;;3.30;99.90;;;;;;5052386;28;20052;-62
2023/02/24 04:12:26;;;;;;;8.45;1.60;;;3.30;99.90;;;;;;5052017;28;20037;-63
2023/02/24 04:15:07;;;;;;;7.53;1.50;;;3.30;99.90;;;;;;5044287;28;20032;-63
2023/02/24 04:17:56;;;;;;;8.40;1.55;;;3.30;99.90;;;;;;5046859;28;20395;-63
2023/02/24 04:20:26;;;;;;;6.60;1.48;;;3.30;99.90;;;;;;5025451;28;20462;-63
2023/02/24 04:22:58;;;;;;;5.63;1.50;;;3.30;99.90;;;;;;5046685;28;20029;-63
2023/02/24 04:25:25;;;;;;;6.15;1.60;;;3.30;99.90;;;;;;5033339;28;20044;-63
2023/02/24 04:27:58;;;;;;;6.15;1.75;;;3.30;99.90;;;;;;5051807;28;20632;-62
2023/02/24 04:30:27;;;;;;;6.50;1.58;;;3.40;99.90;;;;;;5040851;28;20388;-63
2023/02/24 04:32:55;;;;;;;5.30;1.63;;;3.30;99.90;;;;;;5047284;28;20045;-63
2023/02/24 04:35:21;;;;;;;8.55;1.50;;;3.30;99.90;;;;;;5050369;28;20063;-63
2023/02/24 04:37:49;;;;;;;8.40;2.13;;;3.30;99.90;;;;;;5034236;28;20366;-63
2023/02/24 04:40:23;;;;;;;7.03;1.73;;;3.40;99.90;;;;;;5052128;28;20037;-63
2023/02/24 04:42:51;;;;;;;10.02;2.00;;;3.40;99.90;;;;;;5051630;28;20112;-63
2023/02/24 04:45:28;;;;;;;9.18;1.73;;;3.40;99.90;;;;;;5051514;28;20055;-63
2023/02/24 04:47:59;;;;;;;7.28;1.65;;;3.40;99.90;;;;;;5051932;28;20044;-63
2023/02/24 04:50:27;;;;;;;7.45;1.60;;;3.40;99.90;;;;;;5051721;28;20124;-63
2023/02/24 04:52:55;;;;;;;7.35;1.48;;;3.40;99.90;;;;;;5050425;28;20033;-63
2023/02/24 04:55:24;;;;;;;5.15;1.70;;;3.40;99.90;;;;;;5045552;28;20037;-63
2023/02/24 04:57:53;;;;;;;11.45;1.40;;;3.40;99.90;;;;;;5051966;28;20037;-63
2023/02/24 05:00:20;;;;;;;8.77;1.55;;;3.40;99.90;;;;;;5026806;28;20040;-63
2023/02/24 05:02:50;;;;;;;10.63;1.60;;;3.40;99.90;;;;;;5046291;28;20061;-62
2023/02/24 05:05:24;;;;;;;5.53;1.65;;;3.40;99.90;;;;;;5032278;28;20040;-63
2023/02/24 05:08:01;;;;;;;5.38;1.75;;;3.40;99.90;;;;;;5031754;28;20052;-63
2023/02/24 05:10:34;;;;;;;9.68;1.65;;;3.40;99.90;;;;;;5044897;28;20032;-63
2023/02/24 05:13:00;;;;;;;9.88;1.98;;;3.40;99.90;;;;;;5050440;28;20040;-63
2023/02/24 05:15:32;;;;;;;6.70;1.60;;;3.50;99.90;;;;;;5032899;28;20039;-63
2023/02/24 05:18:00;;;;;;;6.00;1.70;;;3.50;99.90;;;;;;5051336;28;20149;-63
2023/02/24 05:23:11;;;;;;;11.20;2.05;;;3.50;99.90;;;;;;5045168;28;20057;-63
2023/02/24 05:25:37;;;;;;;9.95;2.08;;;3.50;99.90;;;;;;5048501;28;20554;-63
2023/02/24 05:28:04;;;;;;;10.90;1.77;;;3.50;99.90;;;;;;5040110;28;20033;-63
2023/02/24 05:30:30;;;;;;;8.93;1.80;;;3.50;99.90;;;;;;5049139;28;20380;-63
2023/02/24 05:32:55;;;;;;;4.93;1.67;;;3.50;99.90;;;;;;5048655;28;20066;-62
2023/02/24 05:35:23;;;;;;;7.00;1.70;;;3.60;99.90;;;;;;5049629;28;20037;-62
2023/02/24 05:37:50;;;;;;;8.88;1.52;;;3.60;99.90;;;;;;5030101;28;20037;-63
2023/02/24 05:40:18;;;;;;;13.50;2.30;;;3.60;99.90;;;;;;5044109;28;20399;-63
2023/02/24 05:42:44;;;;;;;11.98;1.70;;;3.60;99.90;;;;;;5050194;28;20037;-63
2023/02/24 05:45:10;;;;;;;6.72;2.08;;;3.60;99.90;;;;;;5050634;28;20087;-63
2023/02/24 05:47:36;;;;;;;11.30;2.10;;;3.60;99.90;;;;;;5044560;28;20124;-63
2023/02/24 05:50:02;;;;;;;8.02;2.17;;;3.70;99.90;;;;;;5049665;28;20375;-63
2023/02/24 05:52:28;;;;;;;5.95;1.70;;;3.70;99.90;;;;;;5030348;28;20044;-63
2023/02/24 05:54:54;;;;;;;6.78;1.88;;;3.70;99.90;;;;;;5048979;28;20033;-62
2023/02/24 05:57:23;;;;;;;9.70;1.98;;;3.70;99.90;;;;;;5047842;28;20029;-62
2023/02/24 05:59:49;;;;;;;7.75;1.88;;;3.70;99.90;;;;;;5032654;28;20127;-63
2023/02/24 06:02:26;;;;;;;11.00;2.50;;;3.70;99.90;;;;;;5042021;28;20048;-63
2023/02/24 06:04:52;;;;;;;8.15;1.95;;;3.70;99.90;;;;;;5046854;28;20043;-63
2023/02/24 06:07:23;;;;;;;9.95;2.63;;;3.90;99.90;;;;;;5048412;28;20044;-62
2023/02/24 06:09:55;;;;;;;8.98;1.83;;;3.80;99.90;;;;;;5028434;28;20049;-63
2023/02/24 06:12:24;;;;;;;6.30;1.98;;;3.80;99.90;;;;;;5041265;28;20455;-63
2023/02/24 06:14:51;;;;;;;8.15;2.20;;;3.70;99.90;;;;;;5029284;28;20037;-63
2023/02/24 06:17:18;;;;;;;7.32;1.77;;;3.80;99.90;;;;;;5029954;28;20041;-63
2023/02/24 06:19:48;;;;;;;7.65;2.10;;;3.80;99.90;;;;;;5044504;28;20095;-62
2023/02/24 06:22:15;;;;;;;13.93;2.50;;;3.70;99.90;;;;;;5050233;28;20037;-63
2023/02/24 06:24:44;;;;;;;14.65;2.20;;;3.80;99.90;;;;;;5032963;28;20041;-63
2023/02/24 06:27:17;;;;;;;8.35;2.28;;;3.80;99.90;;;;;;5048672;28;20154;-63
2023/02/24 06:29:53;;;;;;;11.40;2.63;;;3.80;99.90;;;;;;5047397;28;20037;-63
2023/02/24 06:32:22;;;;;;;5.93;1.92;;;3.80;99.90;;;;;;5046836;28;20159;-62
2023/02/24 06:34:48;;;;;;;9.43;2.20;;;3.80;99.90;;;;;;5019946;28;20091;-63
2023/02/24 06:37:15;;;;;;;8.00;2.22;;;3.90;99.90;;;;;;5038716;28;20497;-62
2023/02/24 06:39:41;;;;;;;11.45;2.33;;;3.80;99.90;;;;;;5040408;28;20087;-62
2023/02/24 06:42:09;;;;;;;8.30;2.00;;;3.90;99.90;;;;;;5044072;28;20076;-63
2023/02/24 06:44:39;;;;;;;8.60;2.30;;;3.80;99.90;;;;;;5046033;28;20033;-62
2023/02/24 06:47:07;;;;;;;13.10;2.67;;;3.80;99.90;;;;;;5040393;28;20040;-63
2023/02/24 06:49:33;;;;;;;7.97;2.15;;;3.80;99.90;;;;;;5023271;28;20041;-63
2023/02/24 06:51:59;;;;;;;8.02;1.98;;;3.80;99.90;;;;;;5049594;28;20094;-64
2023/02/24 06:54:27;;;;;;;8.48;2.00;;;3.80;99.90;;;;;;5031872;28;20523;-64
2023/02/24 06:56:53;;;;;;;6.30;2.03;;;3.80;99.90;;;;;;5048741;28;20037;-60
2023/02/24 06:59:27;;;;;;;9.20;1.90;;;3.80;99.90;;;;;;5048486;28;20051;-63
2023/02/24 07:01:54;;;;;;;6.93;2.20;;;3.80;99.90;;;;;;5032156;28;20134;-63
2023/02/24 07:04:23;;;;;;;10.32;2.30;;;3.80;99.90;;;;;;5040854;28;20497;-63
2023/02/24 07:06:52;;;;;;;11.00;2.10;;;3.80;99.90;;;;;;5047394;28;20052;-63
2023/02/24 07:09:20;;;;;;;10.57;2.55;;;3.80;99.90;;;;;;5030873;28;20431;-62
2023/02/24 07:11:51;;;;;;;8.98;2.33;;;3.80;99.90;;;;;;5031818;28;20048;-63
2023/02/24 07:14:18;;;;;;;8.52;2.20;;;3.80;99.90;;;;;;5044023;28;20036;-62
2023/02/24 07:16:44;;;;;;;10.88;2.38;;;3.80;99.90;;;;;;5036163;28;20040;-63
2023/02/24 07:19:14;;;;;;;10.95;2.28;;;3.80;99.90;;;;;;5043274;28;20106;-63
2023/02/24 07:21:45;;;;;;;13.27;2.30;;;3.70;99.90;;;;;;5022180;28;20041;-63
2023/02/24 07:24:19;;;;;;;8.73;2.40;;;3.70;99.90;;;;;;5021463;28;20198;-63
2023/02/24 07:26:50;;;;;;;11.10;2.35;;;3.80;99.90;;;;;;5019501;28;20059;-63
2023/02/24 07:29:17;;;;;;;8.20;2.50;;;3.70;99.90;;;;;;5043326;28;20119;-63
2023/02/24 07:31:42;;;;;;;7.80;2.10;;;3.80;99.90;;;;;;5047247;28;20423;-63
2023/02/24 07:34:08;;;;;;;7.90;2.28;;;3.80;99.90;;;;;;5023371;28;20041;-63
2023/02/24 07:36:37;;;;;;;11.35;2.63;;;3.80;99.90;;;;;;5047833;28;20252;-63
2023/02/24 07:39:06;;;;;;;14.45;2.88;;;3.80;99.90;;;;;;5051938;28;20116;-63
2023/02/24 07:41:33;;;;;;;9.88;2.72;;;3.80;99.90;;;;;;5053848;28;20036;-63
2023/02/24 07:44:02;;;;;;;12.45;2.65;;;3.80;99.90;;;;;;5032410;28;21524;-63
2023/02/24 07:46:28;;;;;;;7.18;2.35;;;3.80;99.90;;;;;;5041489;28;20084;-63
2023/02/24 07:48:55;;;;;;;8.38;2.35;;;3.80;99.90;;;;;;5027451;28;20151;-63
2023/02/24 07:51:25;;;;;;;12.80;2.60;;;3.80;99.90;;;;;;5045803;28;20450;-63
2023/02/24 07:54:02;;;;;;;9.00;2.90;;;3.80;99.90;;;;;;5042315;28;20049;-64
2023/02/24 07:56:29;;;;;;;14.65;2.90;;;3.80;99.90;;;;;;5039090;28;20553;-63
2023/02/24 07:59:00;;;;;;;11.18;3.28;;;3.80;99.90;;;;;;5040072;28;20399;-63
2023/02/24 08:01:29;;;;;;;7.57;2.90;;;3.80;99.90;;;;;;5047166;28;20417;-63
2023/02/24 08:04:06;;;;;;;11.27;2.90;;;3.80;99.90;;;;;;5048419;28;20048;-63
2023/02/24 08:06:38;;;;;;;10.90;3.15;;;3.90;99.90;;;;;;5050783;28;20059;-63
2023/02/24 08:09:16;;;;;;;12.00;3.25;;;3.90;99.90;;;;;;5026840;28;20132;-63
2023/02/24 08:11:50;;;;;;;12.82;2.78;;;3.90;99.90;;;;;;5042616;28;20095;-63
2023/02/24 08:14:22;;;;;;;12.15;3.05;;;3.90;99.90;;;;;;5039667;28;20071;-63
2023/02/24 08:17:00;;;;;;;10.57;2.97;;;4.00;99.90;;;;;;5039956;28;20448;-64
2023/02/24 08:19:38;;;;;;;10.50;3.08;;;3.90;99.90;;;;;;5043737;28;20037;-63
2023/02/24 08:22:18;;;;;;;8.38;3.33;;;3.90;99.90;;;;;;5044345;28;20044;-64
2023/02/24 08:24:51;;;;;;;15.65;3.28;;;4.00;99.90;;;;;;5040537;28;20029;-63
2023/02/24 08:27:19;;;;;;;13.27;3.13;;;4.00;99.90;;;;;;5044845;28;20033;-63
2023/02/24 08:29:57;;;;;;;11.35;3.33;;;4.00;99.90;;;;;;5049047;28;20029;-63
2023/02/24 08:32:42;;;;;;;14.38;3.13;;;4.00;99.90;;;;;;5024620;28;20045;-63
2023/02/24 08:35:17;;;;;;;13.60;2.90;;;4.00;99.90;;;;;;5043301;28;20483;-63
2023/02/24 08:37:53;;;;;;;14.05;3.08;;;4.10;99.90;;;;;;5050605;28;20089;-63
2023/02/24 08:43:18;;;;;;;15.13;2.72;;;4.90;99.90;;;;;;5051633;28;20041;-63
2023/02/24 08:45:59;;;;;;;16.38;3.55;;;4.10;99.90;;;;;;5051587;28;20513;-63
2023/02/24 08:48:37;;;;;;;11.80;3.45;;;4.20;99.90;;;;;;5044465;28;20060;-63
2023/02/24 08:51:27;;;;;;;15.95;3.67;;;4.20;99.90;;;;;;5051147;28;20048;-63
2023/02/24 08:54:18;;;;;;;20.23;4.03;;;4.20;99.90;;;;;;5032812;28;20403;-63
2023/02/24 08:56:54;;;;;;;14.88;3.50;;;4.20;99.90;;;;;;5014172;28;20124;-63
2023/02/24 08:59:36;;;;;;;10.15;3.67;;;4.20;99.90;;;;;;5027540;28;20038;-64
2023/02/24 09:02:26;;;;;;;9.32;3.42;;;4.20;99.90;;;;;;5043944;28;20055;-63
2023/02/24 09:05:09;;;;;;;14.13;3.83;;;4.20;99.90;;;;;;5047039;28;20441;-63
2023/02/24 09:07:37;;;;;;;13.85;4.40;;;4.30;99.90;;;;;;5045756;28;20391;-63
2023/02/24 09:10:18;;;;;;;13.27;3.83;;;4.30;99.90;;;;;;5032948;28;20028;-63
2023/02/24 09:12:45;;;;;;;11.85;4.13;;;4.30;99.90;;;;;;5048240;28;20373;-63
2023/02/24 09:15:14;;;;;;;16.75;4.43;;;4.30;99.90;;;;;;5043072;28;20042;-63
2023/02/24 09:23:07;;;;;;;14.38;4.70;;;4.40;99.90;;;;;;5032547;28;20041;-63
2023/02/24 09:25:42;;;;;;;18.65;4.72;;;4.40;99.90;;;;;;5039835;28;20390;-63
2023/02/24 09:28:23;;;;;;;13.55;5.00;;;4.40;99.90;;;;;;5053141;28;20111;-63
2023/02/24 09:31:03;;;;;;;18.73;5.30;;;4.50;99.90;;;;;;5029413;28;20495;-63
2023/02/24 09:33:40;;;;;;;19.00;5.25;;;4.50;99.90;;;;;;5027542;28;20511;-63
2023/02/24 09:36:09;;;;;;;16.35;5.05;;;4.50;99.90;;;;;;5020147;28;20048;-64
2023/02/24 09:44:51;;;;;;;15.45;5.53;;;4.70;99.90;;;;;;5044169;28;20041;-63
2023/02/24 09:47:38;;;;;;;14.60;5.38;;;4.70;99.90;;;;;;5051737;28;20063;-63
2023/02/24 09:50:12;;;;;;;16.67;6.13;;;4.70;99.90;;;;;;5040804;28;20401;-63
2023/02/24 09:52:40;;;;;;;17.75;6.20;;;5.00;99.90;;;;;;5026564;28;20041;-63
2023/02/24 09:55:28;;;;;;;18.92;6.20;;;4.80;99.90;;;;;;5048616;28;20037;-63
2023/02/24 10:01:19;;;;;;;15.50;5.43;;;4.90;99.90;;;;;;5042896;28;20068;-63
2023/02/24 10:04:03;;;;;;;18.88;5.85;;;4.90;99.90;;;;;;5038901;28;20080;-63
2023/02/24 10:06:41;;;;;;;16.05;5.55;;;4.90;99.90;;;;;;5046333;28;20400;-63
2023/02/24 10:09:25;;;;;;;17.77;5.93;;;4.90;99.90;;;;;;5034679;28;20045;-63
2023/02/24 10:12:04;;;;;;;15.93;5.60;;;4.90;99.90;;;;;;5088735;27;20385;-61
2023/02/24 10:14:51;;;;;;;16.48;5.75;;;5.00;99.90;;;;;;5086703;28;20033;-63
2023/02/24 10:17:22;;;;;;;14.30;5.78;;;5.10;99.90;;;;;;5089552;28;20032;-63
2023/02/24 10:19:55;;;;;;;15.52;6.00;;;5.00;99.90;;;;;;5088369;28;20036;-63
2023/02/24 10:22:26;;;;;;;11.55;5.50;;;5.10;99.90;;;;;;5077150;28;20044;-63
2023/02/24 10:25:10;;;;;;;13.52;5.75;;;5.20;99.90;;;;;;5091707;28;20063;-63
2023/02/24 10:28:02;;;;;;;14.65;6.40;;;5.20;99.90;;;;;;5094029;28;20040;-63
2023/02/24 10:30:40;;;;;;;12.45;6.07;;;5.20;99.90;;;;;;5080863;28;20059;-63
2023/02/24 10:33:24;;;;;;;10.95;6.07;;;5.20;99.90;;;;;;5093575;28;20037;-63
2023/02/24 10:35:50;;;;;;;17.83;7.00;;;5.30;99.90;;;;;;5087425;28;20112;-63
2023/02/24 10:38:16;;;;;;;13.95;6.20;;;5.30;99.90;;;;;;5079235;28;20037;-63
2023/02/24 10:40:55;;;;;;;12.90;5.70;;;5.30;99.90;;;;;;5091023;28;20048;-63
2023/02/24 10:43:28;;;;;;;13.68;5.90;;;5.30;99.90;;;;;;5090434;28;20036;-63
2023/02/24 10:46:04;;;;;;;11.43;5.85;;;5.40;99.90;;;;;;5087008;28;20410;-63
2023/02/24 10:48:40;;;;;;;17.63;6.03;;;5.40;99.90;;;;;;5084283;28;20111;-63
2023/02/24 10:51:29;;;;;;;11.48;5.60;;;5.50;99.90;;;;;;5089019;28;20544;-63
2023/02/24 10:54:24;;;;;;;17.52;6.47;;;5.60;99.90;;;;;;5093774;28;20669;-63
2023/02/24 10:57:06;;;;;;;18.42;6.13;;;5.60;99.90;;;;;;5092000;28;20051;-63
2023/02/24 11:00:19;;;;;;;14.07;6.07;;;5.60;99.90;;;;;;5080973;28;20036;-63
2023/02/24 11:03:24;;;;;;;17.50;5.90;;;5.70;99.90;;;;;;5077644;28;20063;-63
2023/02/24 11:05:43;;;;;;;15.45;5.60;;;5.80;99.90;;;;;;5088617;28;20033;-63
2023/02/24 11:11:29;;;;;;;18.23;6.13;;;6.10;99.90;;;;;;5100684;28;20486;-63
2023/02/24 11:19:48;;;;;;;21.95;6.25;;;6.60;99.90;;;;;;5075971;28;20045;-63
2023/02/24 11:22:22;;;;;;;28.52;7.22;;;6.90;99.90;;;;;;5080520;28;20548;-63
2023/02/24 11:24:50;;;;;;;26.13;5.95;;;7.30;99.90;;;;;;5075387;28;20040;-64
2023/02/24 11:27:20;;;;;;;20.88;5.32;;;7.60;99.90;;;;;;5076539;28;20056;-63
2023/02/24 11:30:05;;;;;;;21.13;5.13;;;7.70;99.90;;;;;;5075941;28;20072;-63
2023/02/24 11:32:55;;;;;;;25.15;4.63;;;7.70;99.90;;;;;;5069864;28;20413;-63
2023/02/24 11:35:52;;;;;;;25.23;4.45;;;7.70;99.90;;;;;;5067101;28;20120;-63
2023/02/24 11:39:12;;;;;;;25.38;4.07;;;7.70;99.90;;;;;;5078078;28;20090;-63
2023/02/24 11:41:44;;;;;;;27.25;4.95;;;7.80;99.90;;;;;;5074185;28;20036;-63
2023/02/24 11:44:34;;;;;;;20.73;4.28;;;8.00;99.90;;;;;;5081840;28;20392;-63
2023/02/24 11:47:14;;;;;;;23.73;4.38;;;8.00;99.90;;;;;;5062377;28;20072;-63
2023/02/24 11:49:57;;;;;;;31.63;4.75;;;8.00;99.90;;;;;;5076027;28;20086;-63
2023/02/24 11:52:32;;;;;;;28.27;4.15;;;7.90;99.90;;;;;;5078776;28;20041;-63
2023/02/24 11:54:59;;;;;;;26.80;5.18;;;7.80;99.90;;;;;;5077360;28;20044;-63
2023/02/24 11:57:37;;;;;;;22.83;4.25;;;7.80;99.90;;;;;;5075044;28;20036;-63
2023/02/24 12:00:22;;;;;;;32.17;4.70;;;7.90;99.90;;;;;;5080427;28;20416;-63
2023/02/24 12:03:02;;;;;;;25.15;4.75;;;7.80;99.90;;;;;;5070470;28;20282;-64
2023/02/24 12:05:41;;;;;;;25.33;4.10;;;7.70;99.90;;;;;;5065142;28;20044;-63
2023/02/24 12:08:33;;;;;;;27.75;4.32;;;7.60;99.90;;;;;;5082416;28;20076;-63
2023/02/24 12:11:34;;;;;;;28.52;4.28;;;7.50;99.90;;;;;;5074697;28;20072;-63
2023/02/24 12:14:23;;;;;;;23.02;3.80;;;7.50;99.90;;;;;;5074102;28;20059;-63
2023/02/24 12:16:57;;;;;;;26.92;4.07;;;7.50;99.90;;;;;;5061721;28;20055;-63
2023/02/24 12:19:44;;;;;;;33.25;5.07;;;7.50;99.90;;;;;;5068858;28;20480;-63
2023/02/24 12:22:14;;;;;;;25.48;4.28;;;7.70;99.90;;;;;;5079445;28;20044;-62
2023/02/24 12:24:51;;;;;;;25.08;3.78;;;7.80;99.90;;;;;;5066379;28;20437;-62
2023/02/24 12:27:56;;;;;;;27.95;4.55;;;7.90;99.90;;;;;;5080284;28;20032;-62
2023/02/24 12:30:56;;;;;;;20.70;4.10;;;7.90;99.90;;;;;;5064863;28;20046;-62
2023/02/24 12:33:44;;;;;;;23.05;4.00;;;7.80;99.90;;;;;;5072086;28;20085;-62
2023/02/24 12:36:36;;;;;;;18.55;4.13;;;7.80;99.90;;;;;;5082056;28;20090;-62
2023/02/24 12:39:14;;;;;;;20.98;3.90;;;7.70;99.90;;;;;;5055978;28;20079;-62
2023/02/24 12:41:58;;;;;;;14.40;3.22;;;7.70;99.90;;;;;;5063348;28;20037;-62
2023/02/24 12:44:42;;;;;;;15.27;2.95;;;7.60;99.90;;;;;;5066793;28;20044;-62
2023/02/24 12:47:34;;;;;;;19.00;3.00;;;7.50;99.90;;;;;;5077180;28;20041;-62
2023/02/24 12:50:15;;;;;;;15.25;2.90;;;7.40;99.90;;;;;;5079896;28;20114;-62
2023/02/24 12:53:05;;;;;;;22.65;3.63;;;7.40;99.90;;;;;;5064266;28;20090;-62
2023/02/24 12:55:57;;;;;;;27.92;3.92;;;7.40;99.90;;;;;;5064140;28;20130;-62
2023/02/24 12:58:27;;;;;;;22.27;3.65;;;7.40;99.90;;;;;;5054682;28;20078;-62
2023/02/24 13:01:03;;;;;;;27.77;4.38;;;7.50;99.90;;;;;;5072853;28;20045;-62
2023/02/24 13:03:41;;;;;;;21.70;3.40;;;7.50;99.90;;;;;;5073503;28;20032;-62
2023/02/24 13:06:43;;;;;;;17.08;3.03;;;7.60;99.90;;;;;;5069894;28;20044;-62
2023/02/24 13:09:28;;;;;;;14.15;2.38;;;7.60;99.90;;;;;;5070136;28;20044;-62
2023/02/24 13:12:02;;;;;;;13.98;3.03;;;7.50;99.90;;;;;;5069409;28;20314;-63
2023/02/24 13:14:34;;;;;;;16.25;2.55;;;7.50;99.90;;;;;;5058971;28;20291;-62
2023/02/24 13:17:09;;;;;;;;;;;7.50;99.90;;;;;;5072524;28;20052;-62
2023/02/24 13:19:39;;;;;;;11.13;2.72;;;7.50;99.90;;;;;;5071183;28;19916;-62
2023/02/24 13:22:07;;;;;;;16.70;2.80;;;7.40;99.90;;;;;;5054314;28;20033;-62
2023/02/24 13:24:34;;;;;;;16.15;2.83;;;7.40;99.90;;;;;;5058950;28;20040;-63
2023/02/24 13:27:21;;;;;;;17.95;3.13;;;7.30;99.90;;;;;;5085222;28;20084;-67
2023/02/24 13:29:53;;;;;;;18.02;3.90;;;7.30;99.90;;;;;;5061305;28;20403;-65
2023/02/24 13:32:40;;;;;;;29.27;7.23;;;7.30;99.90;;;;;;5054397;28;20502;-64
2023/02/24 13:35:26;;;;;;;18.48;5.28;;;7.30;99.90;;;;;;5059604;28;20044;-64
2023/02/24 13:37:53;;;;;;;22.15;9.55;;;7.40;99.90;;;;;;5065721;28;20410;-64
2023/02/24 13:40:21;;;;;;;14.32;4.10;;;7.30;99.90;;;;;;5071491;28;20036;-64
2023/02/24 13:42:58;;;;;;;16.15;5.63;;;7.40;99.90;;;;;;5053974;28;20099;-64
2023/02/24 13:45:34;;;;;;;15.35;5.90;;;7.40;99.90;;;;;;5056968;28;20394;-64
2023/02/24 13:48:37;;;;;;;17.30;5.45;;;7.50;99.90;;;;;;5057119;28;20430;-65
2023/02/24 13:51:29;;;;;;;18.10;7.28;;;7.50;99.90;;;;;;5073683;28;20072;-64
2023/02/24 13:54:29;;;;;;;18.33;9.00;;;7.60;99.90;;;;;;5073890;28;20052;-64
2023/02/24 13:56:59;;;;;;;12.85;8.00;;;7.60;99.90;;;;;;5052696;28;20041;-64
2023/02/24 14:00:09;;;;;;;9.10;2.55;;;7.70;99.90;;;;;;5062532;28;20070;-63
2023/02/24 14:02:41;;;;;;;10.10;4.95;;;7.80;99.90;;;;;;5065771;28;20132;-64
2023/02/24 14:05:15;;;;;;;10.60;3.88;;;7.80;99.90;;;;;;5058972;28;20037;-64
2023/02/24 14:07:41;;;;;;;9.50;2.83;;;7.80;99.90;;;;;;5060990;28;20079;-64